sensor_id;sensor_type;location;lat;lon;timestamp;temperature;humidity
4312;DHT22;2169;49.086;9.284;2024-02-23T00:02:17;9.10;67.40
4312;DHT22;2169;49.086;9.284;2024-02-23T00:04:45;9.10;66.80
4312;DHT22;2169;49.086;9.284;2024-02-23T00:07:14;9.10;66.90
4312;DHT22;2169;49.086;9.284;2024-02-23T00:09:42;9.10;66.90
4312;DHT22;2169;49.086;9.284;2024-02-23T00:12:09;9.10;66.90
4312;DHT22;2169;49.086;9.284;2024-02-23T00:14:36;9.10;66.90
4312;DHT22;2169;49.086;9.284;2024-02-23T00:17:03;9.10;66.90
4312;DHT22;2169;49.086;9.284;2024-02-23T00:19:32;9.00;66.90
4312;DHT22;2169;49.086;9.284;2024-02-23T00:21:59;9.00;67.60
4312;DHT22;2169;49.086;9.284;2024-02-23T00:24:27;9.00;67.00
4312;DHT22;2169;49.086;9.284;2024-02-23T00:26:54;9.00;66.90
4312;DHT22;2169;49.086;9.284;2024-02-23T00:29:21;9.00;66.90
4312;DHT22;2169;49.086;9.284;2024-02-23T00:31:49;8.90;66.80
4312;DHT22;2169;49.086;9.284;2024-02-23T00:34:17;8.90;66.80
4312;DHT22;2169;49.086;9.284;2024-02-23T00:36:44;8.90;66.80
4312;DHT22;2169;49.086;9.284;2024-02-23T00:39:11;8.90;66.80
4312;DHT22;2169;49.086;9.284;2024-02-23T00:41:40;8.90;66.80
4312;DHT22;2169;49.086;9.284;2024-02-23T00:44:06;8.90;66.60
4312;DHT22;2169;49.086;9.284;2024-02-23T00:46:34;8.80;66.40
4312;DHT22;2169;49.086;9.284;2024-02-23T00:49:00;8.80;66.30
4312;DHT22;2169;49.086;9.284;2024-02-23T00:51:28;8.80;66.30
4312;DHT22;2169;49.086;9.284;2024-02-23T00:53:56;8.70;66.10
4312;DHT22;2169;49.086;9.284;2024-02-23T00:56:24;8.70;66.20
4312;DHT22;2169;49.086;9.284;2024-02-23T00:58:52;8.70;66.00
4312;DHT22;2169;49.086;9.284;2024-02-23T01:01:19;8.70;65.90
4312;DHT22;2169;49.086;9.284;2024-02-23T01:03:46;8.70;65.80
4312;DHT22;2169;49.086;9.284;2024-02-23T01:06:13;8.60;65.60
4312;DHT22;2169;49.086;9.284;2024-02-23T01:08:40;8.60;65.40
4312;DHT22;2169;49.086;9.284;2024-02-23T01:11:07;8.60;65.30
4312;DHT22;2169;49.086;9.284;2024-02-23T01:13:35;8.60;65.10
4312;DHT22;2169;49.086;9.284;2024-02-23T01:16:04;8.50;65.00
4312;DHT22;2169;49.086;9.284;2024-02-23T01:18:31;8.50;64.90
4312;DHT22;2169;49.086;9.284;2024-02-23T01:20:58;8.50;64.90
4312;DHT22;2169;49.086;9.284;2024-02-23T01:23:25;8.50;65.00
4312;DHT22;2169;49.086;9.284;2024-02-23T01:25:52;8.50;65.00
4312;DHT22;2169;49.086;9.284;2024-02-23T01:28:19;8.40;65.00
4312;DHT22;2169;49.086;9.284;2024-02-23T01:30:46;8.40;64.80
4312;DHT22;2169;49.086;9.284;2024-02-23T01:33:15;8.40;64.80
4312;DHT22;2169;49.086;9.284;2024-02-23T01:35:42;8.40;64.80
4312;DHT22;2169;49.086;9.284;2024-02-23T01:38:09;8.40;64.80
4312;DHT22;2169;49.086;9.284;2024-02-23T01:40:44;8.30;64.60
4312;DHT22;2169;49.086;9.284;2024-02-23T01:43:11;8.30;64.50
4312;DHT22;2169;49.086;9.284;2024-02-23T01:45:38;8.30;64.60
4312;DHT22;2169;49.086;9.284;2024-02-23T01:48:06;8.30;64.50
4312;DHT22;2169;49.086;9.284;2024-02-23T01:50:34;8.30;64.50
4312;DHT22;2169;49.086;9.284;2024-02-23T01:53:02;8.20;64.10
4312;DHT22;2169;49.086;9.284;2024-02-23T01:55:29;8.20;64.00
4312;DHT22;2169;49.086;9.284;2024-02-23T01:57:57;8.20;64.00
4312;DHT22;2169;49.086;9.284;2024-02-23T02:00:25;8.20;64.00
4312;DHT22;2169;49.086;9.284;2024-02-23T02:02:52;8.20;64.00
4312;DHT22;2169;49.086;9.284;2024-02-23T02:05:20;8.10;63.80
4312;DHT22;2169;49.086;9.284;2024-02-23T02:07:49;8.10;63.70
4312;DHT22;2169;49.086;9.284;2024-02-23T02:10:20;8.10;63.80
4312;DHT22;2169;49.086;9.284;2024-02-23T02:12:47;8.10;63.80
4312;DHT22;2169;49.086;9.284;2024-02-23T02:15:14;8.10;63.80
4312;DHT22;2169;49.086;9.284;2024-02-23T02:17:41;8.00;63.80
4312;DHT22;2169;49.086;9.284;2024-02-23T02:20:12;8.00;63.80
4312;DHT22;2169;49.086;9.284;2024-02-23T02:22:39;8.00;63.80
4312;DHT22;2169;49.086;9.284;2024-02-23T02:25:13;8.00;63.70
4312;DHT22;2169;49.086;9.284;2024-02-23T02:27:40;8.00;63.70
4312;DHT22;2169;49.086;9.284;2024-02-23T02:30:08;8.00;63.70
4312;DHT22;2169;49.086;9.284;2024-02-23T02:32:36;8.00;63.70
4312;DHT22;2169;49.086;9.284;2024-02-23T02:35:03;7.90;63.50
4312;DHT22;2169;49.086;9.284;2024-02-23T02:37:30;7.90;63.60
4312;DHT22;2169;49.086;9.284;2024-02-23T02:39:57;7.90;63.70
4312;DHT22;2169;49.086;9.284;2024-02-23T02:42:26;7.90;63.70
4312;DHT22;2169;49.086;9.284;2024-02-23T02:44:54;7.90;63.70
4312;DHT22;2169;49.086;9.284;2024-02-23T02:47:21;7.80;63.60
4312;DHT22;2169;49.086;9.284;2024-02-23T02:49:49;7.80;63.60
4312;DHT22;2169;49.086;9.284;2024-02-23T02:52:17;7.80;63.60
4312;DHT22;2169;49.086;9.284;2024-02-23T02:54:46;7.80;63.70
4312;DHT22;2169;49.086;9.284;2024-02-23T02:57:14;7.80;63.60
4312;DHT22;2169;49.086;9.284;2024-02-23T02:59:42;7.80;63.60
4312;DHT22;2169;49.086;9.284;2024-02-23T03:02:10;7.70;63.50
4312;DHT22;2169;49.086;9.284;2024-02-23T03:04:37;7.70;63.50
4312;DHT22;2169;49.086;9.284;2024-02-23T03:07:04;7.70;63.50
4312;DHT22;2169;49.086;9.284;2024-02-23T03:09:31;7.70;63.40
4312;DHT22;2169;49.086;9.284;2024-02-23T03:11:58;7.70;63.50
4312;DHT22;2169;49.086;9.284;2024-02-23T03:14:25;7.70;63.50
4312;DHT22;2169;49.086;9.284;2024-02-23T03:16:54;7.70;63.60
4312;DHT22;2169;49.086;9.284;2024-02-23T03:19:21;7.70;63.60
4312;DHT22;2169;49.086;9.284;2024-02-23T03:21:49;7.70;63.70
4312;DHT22;2169;49.086;9.284;2024-02-23T03:24:16;7.70;63.70
4312;DHT22;2169;49.086;9.284;2024-02-23T03:26:43;7.70;63.80
4312;DHT22;2169;49.086;9.284;2024-02-23T03:29:10;7.70;63.80
4312;DHT22;2169;49.086;9.284;2024-02-23T03:31:39;7.70;63.80
4312;DHT22;2169;49.086;9.284;2024-02-23T03:34:08;7.70;63.80
4312;DHT22;2169;49.086;9.284;2024-02-23T03:36:36;7.70;63.90
4312;DHT22;2169;49.086;9.284;2024-02-23T03:39:03;7.70;63.90
4312;DHT22;2169;49.086;9.284;2024-02-23T03:41:31;7.70;64.00
4312;DHT22;2169;49.086;9.284;2024-02-23T03:43:57;7.70;64.10
4312;DHT22;2169;49.086;9.284;2024-02-23T03:46:25;7.70;64.00
4312;DHT22;2169;49.086;9.284;2024-02-23T03:48:53;7.70;64.10
4312;DHT22;2169;49.086;9.284;2024-02-23T03:51:21;7.70;64.10
4312;DHT22;2169;49.086;9.284;2024-02-23T03:53:48;7.70;64.10
4312;DHT22;2169;49.086;9.284;2024-02-23T03:56:16;7.70;64.10
4312;DHT22;2169;49.086;9.284;2024-02-23T03:58:43;7.60;63.90
4312;DHT22;2169;49.086;9.284;2024-02-23T04:01:11;7.60;63.80
4312;DHT22;2169;49.086;9.284;2024-02-23T04:03:39;7.60;63.90
4312;DHT22;2169;49.086;9.284;2024-02-23T04:06:06;7.60;63.80
4312;DHT22;2169;49.086;9.284;2024-02-23T04:08:35;7.60;63.70
4312;DHT22;2169;49.086;9.284;2024-02-23T04:11:03;7.60;63.70
4312;DHT22;2169;49.086;9.284;2024-02-23T04:13:30;7.60;63.70
4312;DHT22;2169;49.086;9.284;2024-02-23T04:15:57;7.60;63.60
4312;DHT22;2169;49.086;9.284;2024-02-23T04:18:24;7.60;63.60
4312;DHT22;2169;49.086;9.284;2024-02-23T04:20:50;7.60;64.20
4312;DHT22;2169;49.086;9.284;2024-02-23T04:23:17;7.60;63.40
4312;DHT22;2169;49.086;9.284;2024-02-23T04:25:46;7.50;63.20
4312;DHT22;2169;49.086;9.284;2024-02-23T04:28:13;7.50;62.90
4312;DHT22;2169;49.086;9.284;2024-02-23T04:30:40;7.50;62.90
4312;DHT22;2169;49.086;9.284;2024-02-23T04:33:07;7.50;62.90
4312;DHT22;2169;49.086;9.284;2024-02-23T04:35:36;7.50;62.90
4312;DHT22;2169;49.086;9.284;2024-02-23T04:38:03;7.50;62.90
4312;DHT22;2169;49.086;9.284;2024-02-23T04:40:30;7.50;62.80
4312;DHT22;2169;49.086;9.284;2024-02-23T04:42:59;7.50;62.80
4312;DHT22;2169;49.086;9.284;2024-02-23T04:45:26;7.50;62.80
4312;DHT22;2169;49.086;9.284;2024-02-23T04:47:53;7.50;62.80
4312;DHT22;2169;49.086;9.284;2024-02-23T04:50:20;7.50;62.70
4312;DHT22;2169;49.086;9.284;2024-02-23T04:52:47;7.50;62.70
4312;DHT22;2169;49.086;9.284;2024-02-23T04:55:15;7.50;62.70
4312;DHT22;2169;49.086;9.284;2024-02-23T04:57:42;7.50;62.80
4312;DHT22;2169;49.086;9.284;2024-02-23T05:00:12;7.50;62.80
4312;DHT22;2169;49.086;9.284;2024-02-23T05:02:39;7.50;62.90
4312;DHT22;2169;49.086;9.284;2024-02-23T05:05:07;7.50;62.90
4312;DHT22;2169;49.086;9.284;2024-02-23T05:07:34;7.50;62.90
4312;DHT22;2169;49.086;9.284;2024-02-23T05:10:01;7.50;63.00
4312;DHT22;2169;49.086;9.284;2024-02-23T05:12:46;7.50;62.90
4312;DHT22;2169;49.086;9.284;2024-02-23T05:15:28;7.50;62.90
4312;DHT22;2169;49.086;9.284;2024-02-23T05:17:55;7.50;62.90
4312;DHT22;2169;49.086;9.284;2024-02-23T05:20:22;7.40;62.70
4312;DHT22;2169;49.086;9.284;2024-02-23T05:22:49;7.40;62.70
4312;DHT22;2169;49.086;9.284;2024-02-23T05:25:16;7.40;62.60
4312;DHT22;2169;49.086;9.284;2024-02-23T05:27:43;7.40;62.60
4312;DHT22;2169;49.086;9.284;2024-02-23T05:30:12;7.40;62.70
4312;DHT22;2169;49.086;9.284;2024-02-23T05:32:41;7.40;62.70
4312;DHT22;2169;49.086;9.284;2024-02-23T05:35:09;7.40;62.60
4312;DHT22;2169;49.086;9.284;2024-02-23T05:37:36;7.40;62.50
4312;DHT22;2169;49.086;9.284;2024-02-23T05:40:04;7.40;62.50
4312;DHT22;2169;49.086;9.284;2024-02-23T05:42:35;7.40;62.40
4312;DHT22;2169;49.086;9.284;2024-02-23T05:45:03;7.40;62.30
4312;DHT22;2169;49.086;9.284;2024-02-23T05:47:34;7.40;62.30
4312;DHT22;2169;49.086;9.284;2024-02-23T05:50:03;7.30;62.10
4312;DHT22;2169;49.086;9.284;2024-02-23T05:52:51;7.30;62.10
4312;DHT22;2169;49.086;9.284;2024-02-23T05:55:18;7.30;62.10
4312;DHT22;2169;49.086;9.284;2024-02-23T05:57:45;7.30;62.10
4312;DHT22;2169;49.086;9.284;2024-02-23T06:00:13;7.30;62.00
4312;DHT22;2169;49.086;9.284;2024-02-23T06:02:44;7.30;62.00
4312;DHT22;2169;49.086;9.284;2024-02-23T06:05:14;7.30;62.00
4312;DHT22;2169;49.086;9.284;2024-02-23T06:07:41;7.30;62.00
4312;DHT22;2169;49.086;9.284;2024-02-23T06:10:08;7.30;62.10
4312;DHT22;2169;49.086;9.284;2024-02-23T06:12:36;7.30;62.20
4312;DHT22;2169;49.086;9.284;2024-02-23T06:15:04;7.30;62.30
4312;DHT22;2169;49.086;9.284;2024-02-23T06:17:32;7.30;62.20
4312;DHT22;2169;49.086;9.284;2024-02-23T06:19:59;7.30;62.20
4312;DHT22;2169;49.086;9.284;2024-02-23T06:22:28;7.30;62.10
4312;DHT22;2169;49.086;9.284;2024-02-23T06:24:55;7.30;62.10
4312;DHT22;2169;49.086;9.284;2024-02-23T06:27:22;7.30;62.20
4312;DHT22;2169;49.086;9.284;2024-02-23T06:29:50;7.20;62.20
4312;DHT22;2169;49.086;9.284;2024-02-23T06:32:18;7.20;62.30
4312;DHT22;2169;49.086;9.284;2024-02-23T06:34:44;7.20;62.30
4312;DHT22;2169;49.086;9.284;2024-02-23T06:37:12;7.20;62.30
4312;DHT22;2169;49.086;9.284;2024-02-23T06:39:40;7.20;62.30
4312;DHT22;2169;49.086;9.284;2024-02-23T06:42:08;7.20;62.30
4312;DHT22;2169;49.086;9.284;2024-02-23T06:44:36;7.20;62.30
4312;DHT22;2169;49.086;9.284;2024-02-23T06:47:03;7.20;62.30
4312;DHT22;2169;49.086;9.284;2024-02-23T06:49:30;7.20;62.30
4312;DHT22;2169;49.086;9.284;2024-02-23T06:51:57;7.20;62.30
4312;DHT22;2169;49.086;9.284;2024-02-23T06:54:24;7.20;63.00
4312;DHT22;2169;49.086;9.284;2024-02-23T06:56:53;7.10;62.80
4312;DHT22;2169;49.086;9.284;2024-02-23T06:59:20;7.10;62.10
4312;DHT22;2169;49.086;9.284;2024-02-23T07:01:49;7.10;62.00
4312;DHT22;2169;49.086;9.284;2024-02-23T07:04:16;7.10;62.00
4312;DHT22;2169;49.086;9.284;2024-02-23T07:06:44;7.10;62.00
4312;DHT22;2169;49.086;9.284;2024-02-23T07:09:11;7.10;62.00
4312;DHT22;2169;49.086;9.284;2024-02-23T07:11:39;7.10;62.00
4312;DHT22;2169;49.086;9.284;2024-02-23T07:14:10;7.10;62.60
4312;DHT22;2169;49.086;9.284;2024-02-23T07:16:39;7.20;62.00
4312;DHT22;2169;49.086;9.284;2024-02-23T07:19:07;7.20;62.00
4312;DHT22;2169;49.086;9.284;2024-02-23T07:21:35;7.10;61.80
4312;DHT22;2169;49.086;9.284;2024-02-23T07:24:02;7.10;61.60
4312;DHT22;2169;49.086;9.284;2024-02-23T07:26:29;7.10;61.50
4312;DHT22;2169;49.086;9.284;2024-02-23T07:28:56;7.10;61.50
4312;DHT22;2169;49.086;9.284;2024-02-23T07:31:24;7.10;61.40
4312;DHT22;2169;49.086;9.284;2024-02-23T07:33:51;7.10;61.50
4312;DHT22;2169;49.086;9.284;2024-02-23T07:36:20;7.10;61.50
4312;DHT22;2169;49.086;9.284;2024-02-23T07:38:47;7.10;61.50
4312;DHT22;2169;49.086;9.284;2024-02-23T07:41:14;7.20;61.50
4312;DHT22;2169;49.086;9.284;2024-02-23T07:43:43;7.20;61.50
4312;DHT22;2169;49.086;9.284;2024-02-23T07:46:10;7.20;61.50
4312;DHT22;2169;49.086;9.284;2024-02-23T07:48:38;7.20;61.50
4312;DHT22;2169;49.086;9.284;2024-02-23T07:51:05;7.20;61.50
4312;DHT22;2169;49.086;9.284;2024-02-23T07:53:32;7.20;61.50
4312;DHT22;2169;49.086;9.284;2024-02-23T07:56:00;7.20;61.50
4312;DHT22;2169;49.086;9.284;2024-02-23T07:58:28;7.10;61.50
4312;DHT22;2169;49.086;9.284;2024-02-23T08:00:56;7.20;61.60
4312;DHT22;2169;49.086;9.284;2024-02-23T08:03:23;7.20;61.60
4312;DHT22;2169;49.086;9.284;2024-02-23T08:05:51;7.20;61.50
4312;DHT22;2169;49.086;9.284;2024-02-23T08:08:18;7.20;61.40
4312;DHT22;2169;49.086;9.284;2024-02-23T08:10:48;7.20;61.50
4312;DHT22;2169;49.086;9.284;2024-02-23T08:13:15;7.20;61.50
4312;DHT22;2169;49.086;9.284;2024-02-23T08:15:43;7.20;61.40
4312;DHT22;2169;49.086;9.284;2024-02-23T08:18:10;7.20;61.40
4312;DHT22;2169;49.086;9.284;2024-02-23T08:20:37;7.20;61.30
4312;DHT22;2169;49.086;9.284;2024-02-23T08:23:07;7.20;61.20
4312;DHT22;2169;49.086;9.284;2024-02-23T08:25:35;7.20;61.20
4312;DHT22;2169;49.086;9.284;2024-02-23T08:28:03;7.20;61.30
4312;DHT22;2169;49.086;9.284;2024-02-23T08:30:30;7.30;61.30
4312;DHT22;2169;49.086;9.284;2024-02-23T08:32:58;7.30;61.30
4312;DHT22;2169;49.086;9.284;2024-02-23T08:35:25;7.30;61.40
4312;DHT22;2169;49.086;9.284;2024-02-23T08:37:53;7.30;61.40
4312;DHT22;2169;49.086;9.284;2024-02-23T08:40:22;7.30;61.40
4312;DHT22;2169;49.086;9.284;2024-02-23T08:42:48;7.30;61.50
4312;DHT22;2169;49.086;9.284;2024-02-23T08:45:17;7.30;61.60
4312;DHT22;2169;49.086;9.284;2024-02-23T08:47:45;7.30;61.70
4312;DHT22;2169;49.086;9.284;2024-02-23T08:50:12;7.30;61.80
4312;DHT22;2169;49.086;9.284;2024-02-23T08:52:41;7.30;62.00
4312;DHT22;2169;49.086;9.284;2024-02-23T08:55:08;7.30;62.20
4312;DHT22;2169;49.086;9.284;2024-02-23T08:57:39;7.30;62.30
4312;DHT22;2169;49.086;9.284;2024-02-23T09:00:07;7.40;62.50
4312;DHT22;2169;49.086;9.284;2024-02-23T09:02:34;7.40;62.60
4312;DHT22;2169;49.086;9.284;2024-02-23T09:05:04;7.40;62.70
4312;DHT22;2169;49.086;9.284;2024-02-23T09:07:32;7.40;62.70
4312;DHT22;2169;49.086;9.284;2024-02-23T09:10:00;7.40;62.80
4312;DHT22;2169;49.086;9.284;2024-02-23T09:12:27;7.50;62.90
4312;DHT22;2169;49.086;9.284;2024-02-23T09:14:55;7.50;63.00
4312;DHT22;2169;49.086;9.284;2024-02-23T09:17:22;7.50;63.00
4312;DHT22;2169;49.086;9.284;2024-02-23T09:19:51;7.50;63.00
4312;DHT22;2169;49.086;9.284;2024-02-23T09:22:17;7.50;63.00
4312;DHT22;2169;49.086;9.284;2024-02-23T09:24:44;7.50;62.90
4312;DHT22;2169;49.086;9.284;2024-02-23T09:27:11;7.50;62.90
4312;DHT22;2169;49.086;9.284;2024-02-23T09:29:40;7.50;63.00
4312;DHT22;2169;49.086;9.284;2024-02-23T09:32:08;7.60;63.00
4312;DHT22;2169;49.086;9.284;2024-02-23T09:34:35;7.50;62.90
4312;DHT22;2169;49.086;9.284;2024-02-23T09:37:03;7.50;62.80
4312;DHT22;2169;49.086;9.284;2024-02-23T09:39:30;7.50;62.80
4312;DHT22;2169;49.086;9.284;2024-02-23T09:41:57;7.50;62.80
4312;DHT22;2169;49.086;9.284;2024-02-23T09:44:28;7.50;62.90
4312;DHT22;2169;49.086;9.284;2024-02-23T09:46:59;7.50;63.00
4312;DHT22;2169;49.086;9.284;2024-02-23T09:49:36;7.60;63.10
4312;DHT22;2169;49.086;9.284;2024-02-23T09:52:05;7.60;63.10
4312;DHT22;2169;49.086;9.284;2024-02-23T09:54:33;7.60;63.10
4312;DHT22;2169;49.086;9.284;2024-02-23T09:57:03;7.60;63.00
4312;DHT22;2169;49.086;9.284;2024-02-23T09:59:30;7.70;63.00
4312;DHT22;2169;49.086;9.284;2024-02-23T10:01:59;7.70;63.00
4312;DHT22;2169;49.086;9.284;2024-02-23T10:04:27;7.70;63.10
4312;DHT22;2169;49.086;9.284;2024-02-23T10:06:56;7.80;63.10
4312;DHT22;2169;49.086;9.284;2024-02-23T10:09:23;7.80;63.00
4312;DHT22;2169;49.086;9.284;2024-02-23T10:11:52;7.80;63.60
4312;DHT22;2169;49.086;9.284;2024-02-23T10:14:20;7.90;63.00
4312;DHT22;2169;49.086;9.284;2024-02-23T10:16:46;7.90;63.00
4312;DHT22;2169;49.086;9.284;2024-02-23T10:19:13;8.00;63.00
4312;DHT22;2169;49.086;9.284;2024-02-23T10:21:44;8.00;62.80
4312;DHT22;2169;49.086;9.284;2024-02-23T10:24:18;8.10;62.60
4312;DHT22;2169;49.086;9.284;2024-02-23T10:26:45;8.10;62.40
4312;DHT22;2169;49.086;9.284;2024-02-23T10:29:12;8.10;62.20
4312;DHT22;2169;49.086;9.284;2024-02-23T10:31:40;8.20;62.20
4312;DHT22;2169;49.086;9.284;2024-02-23T10:34:09;8.20;62.10
4312;DHT22;2169;49.086;9.284;2024-02-23T10:36:40;8.30;62.20
4312;DHT22;2169;49.086;9.284;2024-02-23T10:39:08;8.30;61.90
4312;DHT22;2169;49.086;9.284;2024-02-23T10:41:38;8.40;61.90
4312;DHT22;2169;49.086;9.284;2024-02-23T10:44:07;8.40;61.80
4312;DHT22;2169;49.086;9.284;2024-02-23T10:46:36;8.50;61.50
4312;DHT22;2169;49.086;9.284;2024-02-23T10:49:06;8.50;61.30
4312;DHT22;2169;49.086;9.284;2024-02-23T10:51:36;8.50;61.10
4312;DHT22;2169;49.086;9.284;2024-02-23T10:54:04;8.50;61.00
4312;DHT22;2169;49.086;9.284;2024-02-23T10:56:33;8.60;60.80
4312;DHT22;2169;49.086;9.284;2024-02-23T10:59:01;8.60;60.40
4312;DHT22;2169;49.086;9.284;2024-02-23T11:04:03;8.60;60.10
4312;DHT22;2169;49.086;9.284;2024-02-23T11:06:30;8.60;59.90
4312;DHT22;2169;49.086;9.284;2024-02-23T11:09:06;8.60;59.70
4312;DHT22;2169;49.086;9.284;2024-02-23T11:11:34;8.60;59.70
4312;DHT22;2169;49.086;9.284;2024-02-23T11:14:07;8.70;59.70
4312;DHT22;2169;49.086;9.284;2024-02-23T11:16:38;8.70;59.60
4312;DHT22;2169;49.086;9.284;2024-02-23T11:19:06;8.70;59.40
4312;DHT22;2169;49.086;9.284;2024-02-23T11:21:36;8.80;59.30
4312;DHT22;2169;49.086;9.284;2024-02-23T11:24:04;8.80;59.10
4312;DHT22;2169;49.086;9.284;2024-02-23T11:26:31;8.80;59.20
4312;DHT22;2169;49.086;9.284;2024-02-23T11:28:59;8.80;59.30
4312;DHT22;2169;49.086;9.284;2024-02-23T11:31:30;8.90;59.30
4312;DHT22;2169;49.086;9.284;2024-02-23T11:33:57;9.00;59.40
4312;DHT22;2169;49.086;9.284;2024-02-23T11:36:28;9.00;59.40
4312;DHT22;2169;49.086;9.284;2024-02-23T11:38:57;9.00;59.20
4312;DHT22;2169;49.086;9.284;2024-02-23T11:41:24;9.10;59.10
4312;DHT22;2169;49.086;9.284;2024-02-23T11:43:51;9.10;58.90
4312;DHT22;2169;49.086;9.284;2024-02-23T11:46:19;9.10;58.80
4312;DHT22;2169;49.086;9.284;2024-02-23T11:48:48;9.10;58.80
4312;DHT22;2169;49.086;9.284;2024-02-23T11:51:19;9.10;58.90
4312;DHT22;2169;49.086;9.284;2024-02-23T11:53:46;9.20;58.80
4312;DHT22;2169;49.086;9.284;2024-02-23T11:56:13;9.20;58.60
4312;DHT22;2169;49.086;9.284;2024-02-23T11:58:40;9.20;58.50
4312;DHT22;2169;49.086;9.284;2024-02-23T12:01:07;9.30;58.60
4312;DHT22;2169;49.086;9.284;2024-02-23T12:03:34;9.30;58.60
4312;DHT22;2169;49.086;9.284;2024-02-23T12:06:03;9.40;58.70
4312;DHT22;2169;49.086;9.284;2024-02-23T12:08:31;9.40;58.60
4312;DHT22;2169;49.086;9.284;2024-02-23T12:11:03;9.40;58.50
4312;DHT22;2169;49.086;9.284;2024-02-23T12:13:31;9.50;58.50
4312;DHT22;2169;49.086;9.284;2024-02-23T12:15:57;9.50;58.40
4312;DHT22;2169;49.086;9.284;2024-02-23T12:18:24;9.50;58.30
4312;DHT22;2169;49.086;9.284;2024-02-23T12:20:52;9.50;58.40
4312;DHT22;2169;49.086;9.284;2024-02-23T12:23:20;9.60;58.50
4312;DHT22;2169;49.086;9.284;2024-02-23T12:25:53;9.70;58.60
4312;DHT22;2169;49.086;9.284;2024-02-23T12:28:21;9.80;58.50
4312;DHT22;2169;49.086;9.284;2024-02-23T12:30:59;9.80;58.40
4312;DHT22;2169;49.086;9.284;2024-02-23T12:33:27;9.90;58.30
4312;DHT22;2169;49.086;9.284;2024-02-23T12:35:55;9.90;58.10
4312;DHT22;2169;49.086;9.284;2024-02-23T12:38:24;9.90;57.70
4312;DHT22;2169;49.086;9.284;2024-02-23T12:40:51;9.90;57.70
4312;DHT22;2169;49.086;9.284;2024-02-23T12:43:18;9.90;57.70
4312;DHT22;2169;49.086;9.284;2024-02-23T12:45:47;9.90;57.70
4312;DHT22;2169;49.086;9.284;2024-02-23T12:48:15;9.90;57.60
4312;DHT22;2169;49.086;9.284;2024-02-23T12:50:42;10.00;56.60
4312;DHT22;2169;49.086;9.284;2024-02-23T12:53:10;10.00;56.60
4312;DHT22;2169;49.086;9.284;2024-02-23T12:55:39;10.00;56.40
4312;DHT22;2169;49.086;9.284;2024-02-23T12:58:06;10.00;56.10
4312;DHT22;2169;49.086;9.284;2024-02-23T13:00:33;9.90;56.80
4312;DHT22;2169;49.086;9.284;2024-02-23T13:03:00;10.00;56.00
4312;DHT22;2169;49.086;9.284;2024-02-23T13:05:26;10.00;56.10
4312;DHT22;2169;49.086;9.284;2024-02-23T13:07:53;10.00;56.10
4312;DHT22;2169;49.086;9.284;2024-02-23T13:10:20;10.10;55.90
4312;DHT22;2169;49.086;9.284;2024-02-23T13:12:48;10.00;55.60
4312;DHT22;2169;49.086;9.284;2024-02-23T13:15:15;10.00;55.60
4312;DHT22;2169;49.086;9.284;2024-02-23T13:17:42;10.00;55.60
4312;DHT22;2169;49.086;9.284;2024-02-23T13:20:10;10.10;55.70
4312;DHT22;2169;49.086;9.284;2024-02-23T13:22:38;10.00;55.40
4312;DHT22;2169;49.086;9.284;2024-02-23T13:25:05;10.10;55.30
4312;DHT22;2169;49.086;9.284;2024-02-23T13:27:32;10.10;55.20
4312;DHT22;2169;49.086;9.284;2024-02-23T13:30:01;10.00;55.20
4312;DHT22;2169;49.086;9.284;2024-02-23T13:32:28;10.10;55.10
4312;DHT22;2169;49.086;9.284;2024-02-23T13:34:55;10.10;55.10
4312;DHT22;2169;49.086;9.284;2024-02-23T13:37:21;10.10;55.20
4312;DHT22;2169;49.086;9.284;2024-02-23T13:39:48;10.10;55.10
4312;DHT22;2169;49.086;9.284;2024-02-23T13:42:15;10.10;55.20
4312;DHT22;2169;49.086;9.284;2024-02-23T13:44:42;10.10;55.20
4312;DHT22;2169;49.086;9.284;2024-02-23T13:47:11;10.10;55.30
4312;DHT22;2169;49.086;9.284;2024-02-23T13:49:38;10.20;55.50
4312;DHT22;2169;49.086;9.284;2024-02-23T13:52:05;10.20;55.50
4312;DHT22;2169;49.086;9.284;2024-02-23T13:54:32;10.20;55.60
4312;DHT22;2169;49.086;9.284;2024-02-23T13:56:59;10.30;55.80
4312;DHT22;2169;49.086;9.284;2024-02-23T13:59:26;10.30;55.80
4312;DHT22;2169;49.086;9.284;2024-02-23T14:01:52;10.30;55.80
4312;DHT22;2169;49.086;9.284;2024-02-23T14:04:21;10.40;55.90
4312;DHT22;2169;49.086;9.284;2024-02-23T14:06:47;10.40;55.90
4312;DHT22;2169;49.086;9.284;2024-02-23T14:09:14;10.40;55.90
4312;DHT22;2169;49.086;9.284;2024-02-23T14:11:41;10.50;55.90
4312;DHT22;2169;49.086;9.284;2024-02-23T14:14:08;10.50;55.70
4312;DHT22;2169;49.086;9.284;2024-02-23T14:16:34;10.50;55.70
4312;DHT22;2169;49.086;9.284;2024-02-23T14:19:01;10.50;55.40
4312;DHT22;2169;49.086;9.284;2024-02-23T14:21:30;10.50;55.20
4312;DHT22;2169;49.086;9.284;2024-02-23T14:23:56;10.50;55.30
4312;DHT22;2169;49.086;9.284;2024-02-23T14:26:23;10.50;55.30
4312;DHT22;2169;49.086;9.284;2024-02-23T14:28:50;10.50;55.00
4312;DHT22;2169;49.086;9.284;2024-02-23T14:31:17;10.50;54.80
4312;DHT22;2169;49.086;9.284;2024-02-23T14:33:43;10.50;54.90
4312;DHT22;2169;49.086;9.284;2024-02-23T14:36:10;10.50;54.90
4312;DHT22;2169;49.086;9.284;2024-02-23T14:38:38;10.50;55.00
4312;DHT22;2169;49.086;9.284;2024-02-23T14:41:05;10.50;54.80
4312;DHT22;2169;49.086;9.284;2024-02-23T14:43:35;10.50;54.90
4312;DHT22;2169;49.086;9.284;2024-02-23T14:46:02;10.60;55.00
4312;DHT22;2169;49.086;9.284;2024-02-23T14:48:29;10.50;54.80
4312;DHT22;2169;49.086;9.284;2024-02-23T14:50:55;10.50;54.80
4312;DHT22;2169;49.086;9.284;2024-02-23T14:53:23;10.50;54.80
4312;DHT22;2169;49.086;9.284;2024-02-23T14:55:51;10.50;54.90
4312;DHT22;2169;49.086;9.284;2024-02-23T14:58:18;10.60;54.80
4312;DHT22;2169;49.086;9.284;2024-02-23T15:00:45;10.50;54.70
4312;DHT22;2169;49.086;9.284;2024-02-23T15:03:12;10.50;54.70
4312;DHT22;2169;49.086;9.284;2024-02-23T15:05:39;10.50;54.80
4312;DHT22;2169;49.086;9.284;2024-02-23T15:08:06;10.50;54.70
4312;DHT22;2169;49.086;9.284;2024-02-23T15:10:33;10.50;54.60
4312;DHT22;2169;49.086;9.284;2024-02-23T15:13:01;10.50;54.70
4312;DHT22;2169;49.086;9.284;2024-02-23T15:15:28;10.50;54.60
4312;DHT22;2169;49.086;9.284;2024-02-23T15:17:55;10.50;54.60
4312;DHT22;2169;49.086;9.284;2024-02-23T15:20:22;10.50;54.50
4312;DHT22;2169;49.086;9.284;2024-02-23T15:22:49;10.50;54.60
4312;DHT22;2169;49.086;9.284;2024-02-23T15:25:15;10.50;54.60
4312;DHT22;2169;49.086;9.284;2024-02-23T15:27:42;10.60;54.70
4312;DHT22;2169;49.086;9.284;2024-02-23T15:30:11;10.60;54.70
4312;DHT22;2169;49.086;9.284;2024-02-23T15:32:38;10.60;54.70
4312;DHT22;2169;49.086;9.284;2024-02-23T15:35:05;10.50;54.60
4312;DHT22;2169;49.086;9.284;2024-02-23T15:37:32;10.50;54.60
4312;DHT22;2169;49.086;9.284;2024-02-23T15:39:59;10.50;54.60
4312;DHT22;2169;49.086;9.284;2024-02-23T15:42:26;10.50;54.60
4312;DHT22;2169;49.086;9.284;2024-02-23T15:44:53;10.50;54.70
4312;DHT22;2169;49.086;9.284;2024-02-23T15:47:22;10.50;54.80
4312;DHT22;2169;49.086;9.284;2024-02-23T15:49:48;10.50;54.80
4312;DHT22;2169;49.086;9.284;2024-02-23T15:52:16;10.50;54.80
4312;DHT22;2169;49.086;9.284;2024-02-23T15:54:43;10.50;54.80
4312;DHT22;2169;49.086;9.284;2024-02-23T15:57:10;10.50;54.80
4312;DHT22;2169;49.086;9.284;2024-02-23T15:59:37;10.60;54.80
4312;DHT22;2169;49.086;9.284;2024-02-23T16:02:04;10.50;54.60
4312;DHT22;2169;49.086;9.284;2024-02-23T16:04:33;10.50;54.70
4312;DHT22;2169;49.086;9.284;2024-02-23T16:07:00;10.50;54.60
4312;DHT22;2169;49.086;9.284;2024-02-23T16:09:27;10.50;54.60
4312;DHT22;2169;49.086;9.284;2024-02-23T16:11:54;10.50;54.70
4312;DHT22;2169;49.086;9.284;2024-02-23T16:14:20;10.50;54.70
4312;DHT22;2169;49.086;9.284;2024-02-23T16:16:48;10.50;54.70
4312;DHT22;2169;49.086;9.284;2024-02-23T16:19:15;10.50;54.70
4312;DHT22;2169;49.086;9.284;2024-02-23T16:21:45;10.50;54.80